< Typhoon 195305 1953 Season Typhoon 195307 >
Typhoon 195306 (MAMIE)
General InformationTrack Information on Google Maps || Disaster Info.ResourceGoogle EarthGE AnimationAtom FeedGeoJSON
Detalied Best Track (Time Zone = UTC)
Year Month Day Hour Lat. Long. Pressure (hPa) Wind (kt) Class Image Chart
1953 7 31 18 23.5 136.8 1002 0 2 -- Chart
1953 8 1 00 23.6 138.2 1002 0 2 -- Chart
1953 8 1 06 23.8 139.5 1000 0 2 -- Chart
1953 8 1 12 24.5 140.7 995 0 2 -- Chart
1953 8 1 18 25.2 141.3 994 0 9 -- Chart
1953 8 2 00 25.4 142.0 989 0 9 -- Chart
1953 8 2 06 25.5 142.4 990 0 9 -- Chart
1953 8 2 12 25.9 142.7 990 0 9 -- Chart
1953 8 2 18 26.3 142.7 990 0 9 -- Chart
1953 8 3 00 26.7 142.3 990 0 9 -- Chart
1953 8 3 06 26.7 141.8 990 0 9 -- Chart
1953 8 3 12 26.8 141.0 990 0 9 -- Chart
1953 8 3 18 27.4 140.7 990 0 9 -- Chart
1953 8 4 00 28.0 140.0 990 0 9 -- Chart
1953 8 4 06 28.4 139.4 985 0 9 -- Chart
1953 8 4 12 28.8 139.0 980 0 9 -- Chart
1953 8 4 18 29.2 138.7 980 0 9 -- Chart
1953 8 5 00 29.5 138.0 985 0 9 -- Chart
1953 8 5 06 30.0 137.9 985 0 9 -- Chart
1953 8 5 12 30.5 138.1 985 0 9 -- Chart
1953 8 5 18 30.9 138.2 990 0 9 -- Chart
1953 8 6 00 31.3 138.2 990 0 9 -- Chart
1953 8 6 06 31.7 138.2 990 0 9 -- Chart
1953 8 6 12 31.9 138.6 990 0 9 -- Chart
1953 8 6 18 32.0 138.9 990 0 9 -- Chart
1953 8 7 00 32.5 139.6 990 0 9 -- Chart
1953 8 7 06 33.0 140.1 992 0 9 -- Chart
1953 8 7 12 33.5 140.8 992 0 9 -- Chart
1953 8 7 18 34.1 141.4 994 0 9 -- Chart
1953 8 8 00 34.7 142.0 994 0 9 -- Chart
1953 8 8 06 35.7 142.8 995 0 9 -- Chart
1953 8 8 12 36.7 143.6 995 0 9 -- Chart
1953 8 8 18 37.8 144.2 998 0 9 -- Chart
1953 8 9 00 38.9 144.5 998 0 9 -- Chart
1953 8 9 06 40.1 145.0 998 0 9 -- Chart
1953 8 9 12 41.2 145.8 998 0 9 -- Chart
1953 8 9 18 42.8 146.2 1002 0 9 -- Chart
1953 8 10 00 44.5 146.0 1004 0 6 -- Chart
1953 8 10 06 47.0 146.0 1006 0 6 -- Chart
Japan Meteorological Agency Best Track Data | Correction Date : 1990-10-17
< Typhoon 195305 1953 Season Typhoon 195307 >

Help